Nearby METAR Reports

This page may be slow to load as it queries the National Weather Service for data.

KBIS - Bismarck, North Dakota, USA
Distance from station: S 10mi, 15km
Updated: Fri, 03-Jul-2020 5:52pm CDT
Clear
Clear
 Wind from SSE
Wind: SSE 14 mph , 22 km/h
Temperature: 90°F , 32°C
Heat Index: 92°F , 33°C
Dew Point: 64°F , 18°C
Humidity: 43%
Barometer: 30.03 inHg , 1016.9 hPa
Clouds: Clear
Visibility: 10 miles , 16 km
2020/07/03 22:52 KBIS 032252Z AUTO 16012KT 10SM CLR 32/18 A3003 RMK AO2 SLP161 T03170178
KDIK - Dickinson, North Dakota, USA
Distance from station: W 95mi, 154km
Updated: Fri, 03-Jul-2020 5:56pm CDT
Clear
Clear
 Wind from ESE
Wind: ESE 18 mph , 30 km/h, Gust: 26 mph , 43 km/h
Temperature: 84°F , 29°C
Heat Index: 86°F , 30°C
Dew Point: 66°F , 19°C
Humidity: 55%
Barometer: 30.02 inHg , 1016.6 hPa
Clouds: Clear
Visibility: 10 miles , 16 km
2020/07/03 22:56 KDIK 032256Z AUTO 11016G23KT 10SM CLR 29/19 A3002 RMK AO2 SLP149 T02940194
 
KXWA - Williston, North Dakota, USA
Distance from station: NNW 2mi, 2km
Updated: Fri, 03-Jul-2020 5:51pm CDT
Clear
Clear
 Wind from ESE
Wind: ESE 23 mph , 37 km/h, Gust: 37 mph , 59 km/h
Temperature: 90°F , 32°C
Dew Point: 54°F , 12°C
Humidity: 29%
Barometer: 30.01 inHg , 1016.3 hPa
Clouds: Clear
Visibility: 10 miles , 16 km
2020/07/03 22:51 KXWA 032251Z AUTO 12020G32KT 10SM CLR 32/12 A3001 RMK AO2 PK WND 12033/2227 SLP997 T03170117
KFAR - Fargo, North Dakota, USA
Distance from station: NNW 4mi, 7km
Updated: Fri, 03-Jul-2020 5:53pm CDT
Clear
Clear
 Wind from S
Wind: S 12 mph , 19 km/h
Temperature: 90°F , 32°C
Heat Index: 93°F , 34°C
Dew Point: 66°F , 19°C
Humidity: 46%
Barometer: 30.02 inHg , 1016.6 hPa
Clouds: Clear
Visibility: 10 miles , 16 km
2020/07/03 22:53 KFAR 032253Z AUTO 17010KT 10SM CLR 32/19 A3002 RMK AO2 SLP161 T03170194
 
KGFK - Grand Forks, North Dakota, USA
Distance from station: NNW 76mi, 123km
Updated: Fri, 03-Jul-2020 5:53pm CDT
Partly cloudy
Partly cloudy
 Wind from SE
Wind: SE 9 mph , 15 km/h
Temperature: 91°F , 33°C
Heat Index: 94°F , 34°C
Dew Point: 66°F , 19°C
Humidity: 44%
Barometer: 30.01 inHg , 1016.3 hPa
Clouds: Partly cloudy
Visibility: 10 miles , 16 km
Cloud details: Partly cloudy 5000 ft
Partly cloudy 14000 ft
2020/07/03 22:53 KGFK 032253Z 14008KT 10SM SCT050 SCT140 33/19 A3001 RMK AO2 SLP157 T03280189
KMOT - Minot, North Dakota, USA
Distance from station: E 109mi, 175km
Updated: Fri, 03-Jul-2020 5:54pm CDT
Clear
Clear
 Wind from E
Wind: E 16 mph , 26 km/h, Gust: 23 mph , 37 km/h
Temperature: 84°F , 29°C
Heat Index: 85°F , 29°C
Dew Point: 63°F , 17°C
Humidity: 48%
Barometer: 30.05 inHg , 1017.6 hPa
Clouds: Clear
Visibility: 10 miles , 16 km
2020/07/03 22:54 KMOT 032254Z 10014G20KT 10SM CLR 29/17 A3005 RMK AO2 SLP169 T02940172